createdAt,value
2022-09-25T00:00:40.016Z,989.42
2022-09-25T00:01:40.042Z,989.42
2022-09-25T00:02:40.087Z,989.45
2022-09-25T00:03:40.000Z,989.40
2022-09-25T00:04:39.983Z,989.47
2022-09-25T00:05:40.030Z,989.46
2022-09-25T00:06:40.012Z,989.47
2022-09-25T00:07:39.993Z,989.46
2022-09-25T00:08:40.006Z,989.46
2022-09-25T00:09:39.980Z,989.45
2022-09-25T00:10:39.992Z,989.52
2022-09-25T00:11:39.995Z,989.51
2022-09-25T00:12:40.026Z,989.50
2022-09-25T00:13:39.999Z,989.49
2022-09-25T00:14:39.988Z,989.48
2022-09-25T00:15:40.003Z,989.46
2022-09-25T00:16:40.031Z,989.53
2022-09-25T00:17:40.006Z,989.50
2022-09-25T00:18:39.997Z,989.51
2022-09-25T00:19:40.028Z,989.47
2022-09-25T00:20:39.996Z,989.47
2022-09-25T00:21:40.008Z,989.49
2022-09-25T00:22:39.994Z,989.40
2022-09-25T00:23:40.000Z,989.44
2022-09-25T00:24:40.036Z,989.43
2022-09-25T00:25:40.048Z,989.43
2022-09-25T00:26:40.020Z,989.44
2022-09-25T00:27:40.037Z,989.46
2022-09-25T00:28:40.031Z,989.42
2022-09-25T00:29:40.042Z,989.45
2022-09-25T00:30:40.128Z,989.41
2022-09-25T00:31:40.055Z,989.45
2022-09-25T00:32:40.022Z,989.44
2022-09-25T00:33:40.039Z,989.37
2022-09-25T00:34:40.031Z,989.41
2022-09-25T00:35:40.044Z,989.42
2022-09-25T00:36:40.032Z,989.45
2022-09-25T00:37:40.045Z,989.41
2022-09-25T00:38:40.062Z,989.40
2022-09-25T00:39:40.050Z,989.43
2022-09-25T00:40:40.172Z,989.36
2022-09-25T00:41:40.077Z,989.42
2022-09-25T00:42:40.099Z,989.41
2022-09-25T00:43:40.142Z,989.40
2022-09-25T00:44:40.108Z,989.40
2022-09-25T00:45:40.177Z,989.44
2022-09-25T00:46:40.226Z,989.38
2022-09-25T00:47:40.160Z,989.35
2022-09-25T00:48:40.182Z,989.40
2022-09-25T00:49:40.171Z,989.39
2022-09-25T00:50:40.242Z,989.38
2022-09-25T00:51:40.244Z,989.44
2022-09-25T00:52:40.220Z,989.36
2022-09-25T00:53:40.257Z,989.35
2022-09-25T00:54:40.230Z,989.36
2022-09-25T00:55:40.265Z,989.43
2022-09-25T00:56:40.243Z,989.35
2022-09-25T00:57:40.282Z,989.32
2022-09-25T00:58:40.324Z,989.38
2022-09-25T00:59:40.306Z,989.33
2022-09-25T01:00:40.307Z,989.33
2022-09-25T01:01:40.386Z,989.35
2022-09-25T01:02:40.373Z,989.32
2022-09-25T01:03:40.353Z,989.33
2022-09-25T01:04:40.388Z,989.35
2022-09-25T01:05:40.356Z,989.38
2022-09-25T01:06:40.380Z,989.38
2022-09-25T01:07:40.398Z,989.40
2022-09-25T01:08:40.387Z,989.37
2022-09-25T01:09:40.426Z,989.31
2022-09-25T01:10:40.453Z,989.29
2022-09-25T01:11:40.462Z,989.30
2022-09-25T01:12:40.469Z,989.24
2022-09-25T01:13:40.459Z,989.29
2022-09-25T01:14:40.486Z,989.27
2022-09-25T01:15:40.510Z,989.30
2022-09-25T01:16:40.545Z,989.26
2022-09-25T01:17:40.537Z,989.31
2022-09-25T01:18:40.523Z,989.28
2022-09-25T01:19:40.542Z,989.30
2022-09-25T01:20:40.574Z,989.23
2022-09-25T01:21:40.577Z,989.26
2022-09-25T01:22:40.588Z,989.18
2022-09-25T01:23:40.569Z,989.22
2022-09-25T01:24:41.182Z,989.30
2022-09-25T01:25:40.634Z,989.27
2022-09-25T01:26:40.632Z,989.25
2022-09-25T01:27:40.638Z,989.28
2022-09-25T01:28:40.665Z,989.24
2022-09-25T01:29:40.678Z,989.27
2022-09-25T01:30:40.750Z,989.23
2022-09-25T01:31:40.694Z,989.22
2022-09-25T01:32:40.714Z,989.24
2022-09-25T01:33:40.729Z,989.26
2022-09-25T01:34:40.720Z,989.20
2022-09-25T01:35:40.765Z,989.19
2022-09-25T01:36:40.749Z,989.19
2022-09-25T01:37:40.765Z,989.15
2022-09-25T01:38:40.763Z,989.21
2022-09-25T01:39:40.794Z,989.12
2022-09-25T01:40:40.821Z,989.18
2022-09-25T01:41:40.788Z,989.15
2022-09-25T01:42:40.855Z,989.14
2022-09-25T01:43:40.830Z,989.08
2022-09-25T01:44:40.844Z,989.14
2022-09-25T01:45:40.971Z,989.17
2022-09-25T01:46:40.881Z,989.15
2022-09-25T01:47:40.913Z,989.17
2022-09-25T01:48:40.886Z,989.16
2022-09-25T01:49:40.924Z,989.21
2022-09-25T01:50:40.956Z,989.17
2022-09-25T01:51:40.921Z,989.10
2022-09-25T01:52:40.949Z,989.18
2022-09-25T01:53:43.514Z,989.14
2022-09-25T01:54:40.955Z,989.09
2022-09-25T01:55:40.959Z,989.14
2022-09-25T01:56:40.957Z,989.16
2022-09-25T01:57:40.945Z,989.17
2022-09-25T01:58:40.977Z,989.16
2022-09-25T01:59:40.975Z,989.12
2022-09-25T02:00:41.002Z,989.19
2022-09-25T02:01:41.032Z,989.15
2022-09-25T02:02:40.992Z,989.14
2022-09-25T02:03:40.978Z,989.08
2022-09-25T02:04:40.938Z,989.06
2022-09-25T02:05:41.016Z,989.05
2022-09-25T02:06:40.991Z,988.99
2022-09-25T02:07:40.971Z,989.11
2022-09-25T02:08:40.998Z,989.09
2022-09-25T02:09:40.973Z,989.05
2022-09-25T02:10:40.999Z,989.07
2022-09-25T02:11:40.973Z,989.04
2022-09-25T02:12:40.998Z,989.11
2022-09-25T02:13:40.986Z,989.12
2022-09-25T02:14:40.982Z,989.03
2022-09-25T02:15:40.979Z,989.06
2022-09-25T02:16:41.019Z,989.09
2022-09-25T02:17:40.974Z,989.09
2022-09-25T02:18:40.972Z,989.06
2022-09-25T02:19:40.999Z,989.04
2022-09-25T02:20:40.991Z,989.11
2022-09-25T02:21:40.987Z,989.08
2022-09-25T02:22:40.993Z,989.03
2022-09-25T02:23:40.989Z,989.06
2022-09-25T02:24:41.001Z,989.09
2022-09-25T02:25:40.996Z,989.16
2022-09-25T02:26:40.997Z,989.11
2022-09-25T02:27:40.984Z,989.10
2022-09-25T02:28:41.005Z,989.06
2022-09-25T02:29:40.975Z,989.10
2022-09-25T02:30:41.014Z,989.13
2022-09-25T02:31:40.996Z,989.07
2022-09-25T02:32:41.006Z,989.04
2022-09-25T02:33:40.986Z,989.10
2022-09-25T02:34:41.010Z,989.12
2022-09-25T02:35:41.013Z,989.16
2022-09-25T02:36:41.012Z,989.12
2022-09-25T02:37:41.008Z,989.11
2022-09-25T02:38:41.013Z,989.14
2022-09-25T02:39:41.004Z,989.14
2022-09-25T02:40:41.096Z,989.09
2022-09-25T02:41:41.013Z,989.10
2022-09-25T02:42:41.004Z,989.07
2022-09-25T02:43:41.028Z,989.10
2022-09-25T02:44:41.023Z,989.17
2022-09-25T02:45:41.102Z,989.10
2022-09-25T02:46:40.999Z,989.14
2022-09-25T02:47:41.001Z,989.14
2022-09-25T02:48:41.008Z,989.10
2022-09-25T02:49:41.024Z,989.07
2022-09-25T02:50:41.054Z,989.15
2022-09-25T02:51:41.057Z,989.11
2022-09-25T02:52:41.031Z,989.17
2022-09-25T02:53:41.038Z,989.23
2022-09-25T02:54:41.057Z,989.17
2022-09-25T02:55:41.042Z,989.15
2022-09-25T02:56:41.034Z,989.19
2022-09-25T02:57:41.031Z,989.23
2022-09-25T02:58:41.074Z,989.21
2022-09-25T02:59:41.014Z,989.20
2022-09-25T03:00:41.041Z,989.20
2022-09-25T03:01:41.066Z,989.24
2022-09-25T03:02:41.108Z,989.22
2022-09-25T03:03:41.028Z,989.26
2022-09-25T03:04:41.020Z,989.29
2022-09-25T03:05:41.051Z,989.14
2022-09-25T03:06:41.040Z,989.18
2022-09-25T03:07:41.026Z,989.18
2022-09-25T03:08:41.038Z,989.18
2022-09-25T03:09:41.042Z,989.14
2022-09-25T03:10:41.007Z,989.18
2022-09-25T03:11:41.045Z,989.22
2022-09-25T03:12:41.038Z,989.25
2022-09-25T03:13:41.061Z,989.23
2022-09-25T03:14:41.059Z,989.17
2022-09-25T03:15:41.083Z,989.24
2022-09-25T03:16:41.094Z,989.25
2022-09-25T03:17:41.050Z,989.24
2022-09-25T03:18:41.058Z,989.25
2022-09-25T03:19:41.052Z,989.26
2022-09-25T03:20:41.052Z,989.23
2022-09-25T03:21:41.062Z,989.22
2022-09-25T03:22:41.036Z,989.25
2022-09-25T03:23:41.039Z,989.22
2022-09-25T03:24:41.048Z,989.14
2022-09-25T03:25:44.683Z,989.21
2022-09-25T03:26:41.067Z,989.16
2022-09-25T03:27:41.057Z,989.11
2022-09-25T03:28:41.057Z,989.20
2022-09-25T03:29:41.081Z,989.22
2022-09-25T03:30:41.152Z,989.18
2022-09-25T03:31:41.072Z,989.20
2022-09-25T03:32:41.072Z,989.14
2022-09-25T03:33:41.058Z,989.11
2022-09-25T03:34:41.037Z,989.11
2022-09-25T03:35:41.163Z,989.10
2022-09-25T03:36:41.075Z,989.08
2022-09-25T03:37:41.081Z,989.10
2022-09-25T03:38:41.070Z,989.03
2022-09-25T03:39:41.064Z,989.05
2022-09-25T03:40:41.189Z,989.06
2022-09-25T03:41:41.083Z,989.02
2022-09-25T03:42:41.071Z,989.02
2022-09-25T03:43:41.065Z,989.03
2022-09-25T03:44:41.079Z,989.06
2022-09-25T03:45:41.140Z,989.07
2022-09-25T03:46:41.067Z,989.03
2022-09-25T03:47:41.121Z,989.01
2022-09-25T03:48:41.083Z,989.02
2022-09-25T03:49:41.074Z,989.08
2022-09-25T03:50:41.097Z,989.07
2022-09-25T03:51:41.084Z,989.10
2022-09-25T03:52:41.058Z,989.08
2022-09-25T03:53:41.079Z,989.07
2022-09-25T03:54:41.075Z,989.06
2022-09-25T03:55:41.092Z,989.05
2022-09-25T03:56:41.077Z,989.12
2022-09-25T03:57:41.084Z,989.06
2022-09-25T03:58:41.075Z,989.04
2022-09-25T03:59:41.089Z,989.07
2022-09-25T04:00:41.104Z,989.07
2022-09-25T04:01:41.162Z,989.06
2022-09-25T04:02:41.168Z,989.06
2022-09-25T04:03:41.099Z,989.10
2022-09-25T04:04:41.090Z,989.08
2022-09-25T04:05:41.088Z,989.10
2022-09-25T04:06:41.087Z,989.11
2022-09-25T04:07:41.098Z,989.02
2022-09-25T04:08:41.100Z,989.19
2022-09-25T04:09:41.093Z,989.08
2022-09-25T04:10:41.112Z,989.09
2022-09-25T04:11:41.089Z,989.07
2022-09-25T04:12:41.105Z,989.12
2022-09-25T04:13:41.096Z,989.08
2022-09-25T04:14:41.092Z,989.07
2022-09-25T04:15:41.115Z,989.07
2022-09-25T04:16:41.157Z,989.02
2022-09-25T04:17:41.089Z,989.01
2022-09-25T04:18:41.151Z,989.00
2022-09-25T04:19:41.120Z,989.05
2022-09-25T04:20:41.105Z,989.02
2022-09-25T04:21:41.113Z,988.99
2022-09-25T04:22:41.104Z,989.04
2022-09-25T04:23:41.112Z,989.05
2022-09-25T04:24:41.104Z,989.00
2022-09-25T04:25:41.113Z,989.07
2022-09-25T04:26:41.117Z,988.97
2022-09-25T04:27:41.136Z,989.01
2022-09-25T04:28:41.079Z,989.04
2022-09-25T04:29:41.107Z,988.93
2022-09-25T04:30:41.141Z,989.01
2022-09-25T04:31:41.222Z,989.02
2022-09-25T04:32:41.127Z,988.96
2022-09-25T04:33:41.116Z,989.00
2022-09-25T04:34:41.121Z,988.97
2022-09-25T04:35:41.127Z,988.98
2022-09-25T04:36:41.131Z,989.01
2022-09-25T04:37:41.115Z,989.07
2022-09-25T04:38:41.125Z,988.98
2022-09-25T04:39:41.121Z,989.00
2022-09-25T04:40:41.190Z,989.07
2022-09-25T04:41:41.128Z,989.07
2022-09-25T04:42:41.119Z,989.00
2022-09-25T04:43:41.107Z,988.96
2022-09-25T04:44:41.126Z,989.02
2022-09-25T04:45:41.137Z,989.01
2022-09-25T04:46:41.230Z,989.01
2022-09-25T04:47:41.126Z,988.99
2022-09-25T04:48:41.142Z,988.97
2022-09-25T04:49:41.120Z,989.01
2022-09-25T04:50:41.148Z,989.05
2022-09-25T04:51:41.130Z,989.04
2022-09-25T04:52:41.144Z,989.10
2022-09-25T04:53:41.133Z,989.09
2022-09-25T04:54:41.132Z,989.02
2022-09-25T04:55:41.153Z,989.03
2022-09-25T04:56:41.140Z,989.02
2022-09-25T04:57:57.937Z,989.11
2022-09-25T04:58:41.132Z,989.07
2022-09-25T04:59:41.125Z,989.12
2022-09-25T05:00:41.176Z,989.01
2022-09-25T05:01:41.239Z,989.13
2022-09-25T05:02:41.356Z,989.12
2022-09-25T05:03:41.301Z,989.11
2022-09-25T05:04:41.162Z,989.14
2022-09-25T05:05:41.164Z,989.07
2022-09-25T05:06:41.167Z,989.08
2022-09-25T05:07:41.161Z,989.09
2022-09-25T05:08:41.169Z,989.14
2022-09-25T05:09:41.217Z,989.09
2022-09-25T05:10:41.175Z,989.17
2022-09-25T05:11:41.177Z,989.12
2022-09-25T05:12:41.159Z,989.15
2022-09-25T05:13:41.166Z,989.18
2022-09-25T05:14:41.186Z,989.16
2022-09-25T05:15:41.184Z,989.22
2022-09-25T05:16:41.213Z,989.17
2022-09-25T05:17:41.157Z,989.22
2022-09-25T05:18:41.183Z,989.25
2022-09-25T05:19:41.180Z,989.23
2022-09-25T05:20:41.176Z,989.15
2022-09-25T05:21:41.170Z,989.20
2022-09-25T05:22:41.175Z,989.20
2022-09-25T05:23:41.171Z,989.18
2022-09-25T05:24:41.190Z,989.26
2022-09-25T05:25:41.181Z,989.17
2022-09-25T05:26:41.172Z,989.14
2022-09-25T05:27:41.169Z,989.13
2022-09-25T05:28:41.177Z,989.14
2022-09-25T05:29:41.172Z,989.13
2022-09-25T05:30:41.176Z,989.17
2022-09-25T05:31:41.240Z,989.19
2022-09-25T05:32:41.187Z,989.13
2022-09-25T05:33:41.192Z,989.11
2022-09-25T05:34:41.185Z,989.09
2022-09-25T05:35:41.202Z,989.18
2022-09-25T05:36:41.201Z,989.18
2022-09-25T05:37:41.192Z,989.18
2022-09-25T05:38:41.183Z,989.17
2022-09-25T05:39:41.192Z,989.17
2022-09-25T05:40:41.299Z,989.22
2022-09-25T05:41:41.181Z,989.17
2022-09-25T05:42:41.200Z,989.28
2022-09-25T05:43:41.194Z,989.17
2022-09-25T05:44:41.195Z,989.24
2022-09-25T05:45:41.215Z,989.19
2022-09-25T05:46:41.218Z,989.28
2022-09-25T05:47:41.238Z,989.23
2022-09-25T05:48:41.205Z,989.26
2022-09-25T05:49:41.197Z,989.30
2022-09-25T05:50:41.228Z,989.23
2022-09-25T05:51:41.200Z,989.27
2022-09-25T05:52:41.221Z,989.21
2022-09-25T05:53:41.199Z,989.26
2022-09-25T05:54:41.209Z,989.28
2022-09-25T05:55:41.227Z,989.31
2022-09-25T05:56:41.196Z,989.22
2022-09-25T05:57:41.230Z,989.32
2022-09-25T05:58:41.209Z,989.29
2022-09-25T05:59:41.188Z,989.25
2022-09-25T06:00:41.225Z,989.33
2022-09-25T06:01:41.271Z,989.34
2022-09-25T06:02:41.279Z,989.25
2022-09-25T06:03:41.203Z,989.29
2022-09-25T06:04:41.217Z,989.31
2022-09-25T06:05:41.222Z,989.34
2022-09-25T06:06:41.217Z,989.34
2022-09-25T06:07:41.225Z,989.30
2022-09-25T06:08:41.218Z,989.37
2022-09-25T06:09:41.203Z,989.33
2022-09-25T06:10:41.221Z,989.33
2022-09-25T06:11:41.214Z,989.31
2022-09-25T06:12:41.223Z,989.35
2022-09-25T06:13:41.240Z,989.42
2022-09-25T06:14:41.222Z,989.37
2022-09-25T06:15:41.274Z,989.44
2022-09-25T06:16:41.229Z,989.34
2022-09-25T06:17:41.228Z,989.41
2022-09-25T06:18:41.232Z,989.43
2022-09-25T06:19:41.227Z,989.44
2022-09-25T06:20:41.236Z,989.37
2022-09-25T06:21:41.228Z,989.45
2022-09-25T06:22:41.262Z,989.45
2022-09-25T06:23:41.240Z,989.44
2022-09-25T06:24:41.238Z,989.52
2022-09-25T06:25:41.251Z,989.46
2022-09-25T06:26:41.233Z,989.41
2022-09-25T06:27:41.287Z,989.43
2022-09-25T06:28:41.246Z,989.42
2022-09-25T06:29:41.228Z,989.41
2022-09-25T06:30:41.281Z,989.40
2022-09-25T06:31:41.275Z,989.42
2022-09-25T06:32:41.243Z,989.39
2022-09-25T06:33:41.239Z,989.45
2022-09-25T06:34:41.246Z,989.40
2022-09-25T06:35:41.253Z,989.46
2022-09-25T06:36:41.246Z,989.46
2022-09-25T06:37:41.270Z,989.50
2022-09-25T06:38:41.240Z,989.41
2022-09-25T06:39:41.249Z,989.38
2022-09-25T06:40:41.921Z,989.44
2022-09-25T06:41:41.265Z,989.43
2022-09-25T06:42:41.316Z,989.45
2022-09-25T06:43:41.247Z,989.52
2022-09-25T06:44:41.264Z,989.51
2022-09-25T06:45:41.288Z,989.48
2022-09-25T06:46:41.343Z,989.43
2022-09-25T06:47:41.276Z,989.57
2022-09-25T06:48:41.280Z,989.51
2022-09-25T06:49:41.263Z,989.54
2022-09-25T06:50:41.276Z,989.45
2022-09-25T06:51:41.259Z,989.48
2022-09-25T06:52:41.268Z,989.54
2022-09-25T06:53:41.251Z,989.44
2022-09-25T06:54:44.205Z,989.51
2022-09-25T06:55:41.277Z,989.45
2022-09-25T06:56:41.305Z,989.50
2022-09-25T06:57:41.270Z,989.59
2022-09-25T06:58:41.268Z,989.56
2022-09-25T06:59:41.289Z,989.51
2022-09-25T07:00:41.279Z,989.59
2022-09-25T07:01:41.349Z,989.54
2022-09-25T07:02:41.330Z,989.58
2022-09-25T07:03:41.279Z,989.58
2022-09-25T07:04:41.278Z,989.55
2022-09-25T07:05:41.313Z,989.58
2022-09-25T07:06:41.286Z,989.57
2022-09-25T07:07:41.278Z,989.53
2022-09-25T07:08:41.286Z,989.49
2022-09-25T07:09:41.274Z,989.54
2022-09-25T07:10:45.584Z,989.53
2022-09-25T07:11:41.298Z,989.52
2022-09-25T07:12:41.290Z,989.56
2022-09-25T07:13:41.308Z,989.57
2022-09-25T07:14:41.325Z,989.54
2022-09-25T07:15:41.348Z,989.57
2022-09-25T07:16:41.275Z,989.54
2022-09-25T07:17:41.298Z,989.51
2022-09-25T07:18:41.286Z,989.54
2022-09-25T07:19:41.293Z,989.52
2022-09-25T07:20:41.338Z,989.60
2022-09-25T07:21:41.297Z,989.52
2022-09-25T07:22:41.309Z,989.55
2022-09-25T07:23:41.289Z,989.53
2022-09-25T07:24:41.307Z,989.49
2022-09-25T07:25:41.325Z,989.55
2022-09-25T07:26:43.214Z,989.54
2022-09-25T07:27:41.329Z,989.53
2022-09-25T07:28:41.304Z,989.48
2022-09-25T07:29:41.306Z,989.51
2022-09-25T07:30:41.348Z,989.48
2022-09-25T07:31:41.404Z,989.50
2022-09-25T07:32:41.314Z,989.53
2022-09-25T07:33:41.304Z,989.45
2022-09-25T07:34:41.304Z,989.48
2022-09-25T07:35:41.323Z,989.45
2022-09-25T07:36:41.304Z,989.50
2022-09-25T07:37:41.311Z,989.51
2022-09-25T07:38:41.312Z,989.54
2022-09-25T07:39:41.302Z,989.52
2022-09-25T07:40:41.360Z,989.49
2022-09-25T07:41:41.292Z,989.53
2022-09-25T07:42:41.310Z,989.52
2022-09-25T07:43:41.374Z,989.55
2022-09-25T07:44:46.073Z,989.49
2022-09-25T07:45:41.342Z,989.52
2022-09-25T07:46:41.420Z,989.52
2022-09-25T07:47:41.329Z,989.60
2022-09-25T07:48:41.333Z,989.50
2022-09-25T07:49:41.337Z,989.63
2022-09-25T07:50:41.326Z,989.56
2022-09-25T07:51:41.423Z,989.52
2022-09-25T07:52:41.336Z,989.56
2022-09-25T07:53:41.323Z,989.59
2022-09-25T07:54:41.317Z,989.56
2022-09-25T07:55:41.369Z,989.51
2022-09-25T07:56:41.332Z,989.53
2022-09-25T07:57:41.338Z,989.55
2022-09-25T07:58:41.346Z,989.55
2022-09-25T07:59:41.330Z,989.53
2022-09-25T08:00:41.337Z,989.59
2022-09-25T08:01:44.708Z,989.52
2022-09-25T08:02:41.395Z,989.55
2022-09-25T08:03:41.343Z,989.64
2022-09-25T08:04:41.355Z,989.56
2022-09-25T08:05:41.351Z,989.58
2022-09-25T08:06:41.350Z,989.63
2022-09-25T08:07:41.357Z,989.63
2022-09-25T08:08:41.355Z,989.62
2022-09-25T08:09:41.348Z,989.60
2022-09-25T08:10:41.364Z,989.63
2022-09-25T08:11:41.354Z,989.56
2022-09-25T08:12:41.349Z,989.64
2022-09-25T08:13:41.371Z,989.61
2022-09-25T08:14:41.358Z,989.61
2022-09-25T08:15:41.407Z,989.59
2022-09-25T08:16:41.373Z,989.64
2022-09-25T08:17:41.352Z,989.71
2022-09-25T08:18:41.383Z,989.74
2022-09-25T08:19:41.396Z,989.64
2022-09-25T08:20:41.391Z,989.69
2022-09-25T08:21:41.361Z,989.62
2022-09-25T08:22:41.367Z,989.64
2022-09-25T08:23:45.404Z,989.58
2022-09-25T08:24:41.364Z,989.74
2022-09-25T08:25:41.381Z,989.62
2022-09-25T08:26:41.421Z,989.67
2022-09-25T08:27:41.380Z,989.69
2022-09-25T08:28:41.377Z,989.66
2022-09-25T08:29:41.377Z,989.66
2022-09-25T08:30:41.396Z,989.67
2022-09-25T08:31:41.432Z,989.64
2022-09-25T08:32:41.364Z,989.62
2022-09-25T08:33:41.369Z,989.67
2022-09-25T08:34:41.951Z,989.62
2022-09-25T08:35:41.398Z,989.67
2022-09-25T08:36:41.377Z,989.63
2022-09-25T08:37:41.381Z,989.58
2022-09-25T08:38:41.398Z,989.66
2022-09-25T08:39:41.380Z,989.61
2022-09-25T08:40:45.810Z,989.61
2022-09-25T08:41:41.398Z,989.55
2022-09-25T08:42:41.402Z,989.66
2022-09-25T08:43:41.371Z,989.58
2022-09-25T08:44:52.586Z,989.56
2022-09-25T08:45:41.391Z,989.58
2022-09-25T08:46:41.444Z,989.55
2022-09-25T08:47:41.410Z,989.58
2022-09-25T08:48:41.384Z,989.66
2022-09-25T08:49:41.377Z,989.63
2022-09-25T08:50:41.397Z,989.59
2022-09-25T08:51:41.406Z,989.64
2022-09-25T08:52:41.397Z,989.64
2022-09-25T08:53:41.388Z,989.61
2022-09-25T08:54:44.966Z,989.65
2022-09-25T08:55:41.405Z,989.58
2022-09-25T08:56:41.413Z,989.61
2022-09-25T08:57:41.406Z,989.62
2022-09-25T08:58:41.412Z,989.61
2022-09-25T09:00:09.792Z,989.61
2022-09-25T09:01:09.857Z,989.61
2022-09-25T09:02:09.844Z,989.51
2022-09-25T09:03:09.776Z,989.54
2022-09-25T09:04:09.893Z,989.61
2022-09-25T09:05:09.832Z,989.59
2022-09-25T09:06:09.785Z,989.61
2022-09-25T09:07:26.347Z,989.65
2022-09-25T09:08:09.770Z,989.57
2022-09-25T09:09:09.763Z,989.57
2022-09-25T09:10:09.792Z,989.64
2022-09-25T09:11:13.410Z,989.58
2022-09-25T09:12:09.803Z,989.65
2022-09-25T09:13:09.782Z,989.63
2022-09-25T09:14:09.838Z,989.66
2022-09-25T09:15:09.794Z,989.64
2022-09-25T09:16:09.842Z,989.63
2022-09-25T09:17:09.789Z,989.67
2022-09-25T09:18:09.785Z,989.60
2022-09-25T09:19:10.043Z,989.64
2022-09-25T09:20:09.797Z,989.72
2022-09-25T09:21:09.804Z,989.63
2022-09-25T09:22:09.810Z,989.58
2022-09-25T09:23:13.476Z,989.63
2022-09-25T09:24:09.865Z,989.63
2022-09-25T09:25:09.797Z,989.57
2022-09-25T09:26:09.788Z,989.52
2022-09-25T09:27:09.802Z,989.61
2022-09-25T09:28:09.802Z,989.68
2022-09-25T09:29:09.802Z,989.65
2022-09-25T09:30:09.814Z,989.62
2022-09-25T09:31:09.869Z,989.61
2022-09-25T09:32:09.821Z,989.66
2022-09-25T09:33:09.822Z,989.63
2022-09-25T09:34:09.915Z,989.61
2022-09-25T09:35:09.826Z,989.66
2022-09-25T09:36:09.958Z,989.67
2022-09-25T09:37:10.050Z,989.69
2022-09-25T09:38:10.158Z,989.66
2022-09-25T09:39:10.398Z,989.70
2022-09-25T09:40:10.192Z,989.74
2022-09-25T09:41:10.180Z,989.65
2022-09-25T09:42:10.173Z,989.66
2022-09-25T09:43:10.163Z,989.65
2022-09-25T09:44:10.327Z,989.63
2022-09-25T09:45:10.189Z,989.69
2022-09-25T09:46:10.231Z,989.75
2022-09-25T09:47:10.185Z,989.74
2022-09-25T09:48:10.169Z,989.68
2022-09-25T09:49:10.188Z,989.71
2022-09-25T09:50:10.190Z,989.69
2022-09-25T09:51:10.222Z,989.63
2022-09-25T09:52:10.225Z,989.67
2022-09-25T09:53:10.252Z,989.67
2022-09-25T09:54:10.261Z,989.64
2022-09-25T09:55:10.230Z,989.70
2022-09-25T09:56:10.245Z,989.71
2022-09-25T09:57:10.238Z,989.73
2022-09-25T09:58:10.296Z,989.77
2022-09-25T09:59:10.319Z,989.79
2022-09-25T10:00:10.314Z,989.75
2022-09-25T10:01:29.081Z,989.70
2022-09-25T10:02:10.490Z,989.73
2022-09-25T10:03:10.499Z,989.73
2022-09-25T10:04:10.567Z,989.75
2022-09-25T10:05:10.456Z,989.74
2022-09-25T10:06:10.454Z,989.78
2022-09-25T10:07:10.437Z,989.73
2022-09-25T10:08:10.438Z,989.78
2022-09-25T10:09:10.494Z,989.78
2022-09-25T10:10:10.489Z,989.77
2022-09-25T10:11:10.458Z,989.75
2022-09-25T10:12:10.460Z,989.71
2022-09-25T10:13:10.474Z,989.73
2022-09-25T10:14:10.515Z,989.74
2022-09-25T10:15:10.464Z,989.74
2022-09-25T10:16:10.517Z,989.74
2022-09-25T10:17:10.465Z,989.78
2022-09-25T10:18:10.476Z,989.70
2022-09-25T10:19:10.505Z,989.68
2022-09-25T10:20:10.457Z,989.71
2022-09-25T10:21:10.455Z,989.75
2022-09-25T10:22:10.976Z,989.77
2022-09-25T10:23:14.546Z,989.76
2022-09-25T10:24:10.595Z,989.67
2022-09-25T10:25:10.451Z,989.67
2022-09-25T10:26:10.466Z,989.67
2022-09-25T10:27:10.467Z,989.69
2022-09-25T10:28:10.479Z,989.71
2022-09-25T10:29:10.493Z,989.73
2022-09-25T10:30:10.499Z,989.75
2022-09-25T10:31:10.559Z,989.76
2022-09-25T10:32:10.463Z,989.75
2022-09-25T10:33:10.466Z,989.74
2022-09-25T10:34:10.531Z,989.79
2022-09-25T10:35:10.484Z,989.77
2022-09-25T10:36:10.481Z,989.83
2022-09-25T10:37:10.486Z,989.75
2022-09-25T10:38:10.491Z,989.75
2022-09-25T10:39:39.669Z,989.76
2022-09-25T10:40:10.577Z,989.76
2022-09-25T10:41:10.482Z,989.71
2022-09-25T10:42:10.482Z,989.73
2022-09-25T10:43:10.483Z,989.74
2022-09-25T10:44:10.496Z,989.78
2022-09-25T10:45:10.490Z,989.80
2022-09-25T10:46:10.581Z,989.73
2022-09-25T10:47:10.494Z,989.74
2022-09-25T10:48:10.511Z,989.77
2022-09-25T10:49:10.595Z,989.76
2022-09-25T10:50:10.496Z,989.81
2022-09-25T10:51:10.495Z,989.77
2022-09-25T10:52:10.533Z,989.72
2022-09-25T10:53:10.511Z,989.71
2022-09-25T10:54:10.570Z,989.75
2022-09-25T10:55:10.522Z,989.74
2022-09-25T10:56:10.496Z,989.79
2022-09-25T10:57:10.535Z,989.81
2022-09-25T10:58:10.529Z,989.73
2022-09-25T10:59:10.523Z,989.84
2022-09-25T11:00:10.533Z,989.78
2022-09-25T11:01:10.543Z,989.81
2022-09-25T11:02:10.629Z,989.77
2022-09-25T11:03:16.827Z,989.84
2022-09-25T11:04:10.516Z,989.83
2022-09-25T11:05:10.516Z,989.84
2022-09-25T11:06:10.516Z,989.90
2022-09-25T11:07:10.503Z,989.82
2022-09-25T11:08:10.510Z,989.80
2022-09-25T11:09:10.586Z,989.85
2022-09-25T11:10:10.541Z,989.85
2022-09-25T11:11:10.522Z,989.90
2022-09-25T11:12:10.523Z,989.81
2022-09-25T11:13:10.532Z,989.86
2022-09-25T11:14:10.534Z,989.87
2022-09-25T11:15:10.527Z,989.91
2022-09-25T11:16:10.530Z,989.87
2022-09-25T11:17:10.537Z,989.94
2022-09-25T11:18:10.506Z,989.86
2022-09-25T11:19:10.581Z,989.83
2022-09-25T11:20:10.539Z,989.87
2022-09-25T11:21:10.561Z,989.90
2022-09-25T11:22:10.566Z,989.85
2022-09-25T11:23:10.557Z,989.91
2022-09-25T11:24:10.553Z,989.86
2022-09-25T11:25:10.563Z,989.92
2022-09-25T11:26:10.544Z,989.94
2022-09-25T11:27:10.580Z,989.95
2022-09-25T11:28:10.535Z,989.88
2022-09-25T11:29:10.573Z,989.91
2022-09-25T11:30:10.574Z,989.95
2022-09-25T11:31:10.587Z,989.97
2022-09-25T11:32:10.604Z,989.97
2022-09-25T11:33:10.597Z,989.90
2022-09-25T11:34:10.625Z,989.91
2022-09-25T11:35:10.619Z,989.92
2022-09-25T11:36:10.650Z,989.93
2022-09-25T11:37:10.646Z,989.89
2022-09-25T11:38:10.670Z,989.97
2022-09-25T11:39:10.710Z,989.96
2022-09-25T11:40:10.709Z,989.94
2022-09-25T11:41:10.694Z,989.93
2022-09-25T11:42:10.715Z,989.95
2022-09-25T11:43:10.747Z,989.97
2022-09-25T11:44:10.752Z,989.92
2022-09-25T11:45:10.744Z,989.94
2022-09-25T11:46:10.816Z,989.88
2022-09-25T11:47:10.760Z,989.95
2022-09-25T11:48:10.767Z,989.91
2022-09-25T11:49:12.415Z,989.94
2022-09-25T11:50:10.814Z,989.95
2022-09-25T11:51:10.901Z,989.93
2022-09-25T11:52:10.924Z,989.94
2022-09-25T11:53:10.894Z,989.91
2022-09-25T11:54:25.665Z,989.94
2022-09-25T11:55:10.906Z,989.97
2022-09-25T11:56:10.906Z,989.94
2022-09-25T11:57:10.905Z,989.93
2022-09-25T11:58:10.918Z,989.87
2022-09-25T11:59:10.923Z,989.94
2022-09-25T12:00:11.002Z,989.88
2022-09-25T12:01:10.982Z,989.87
2022-09-25T12:02:10.975Z,989.89
2022-09-25T12:03:10.930Z,989.92
2022-09-25T12:04:10.958Z,989.88
2022-09-25T12:05:10.957Z,989.87
2022-09-25T12:06:10.915Z,989.83
2022-09-25T12:07:10.944Z,989.83
2022-09-25T12:08:10.951Z,989.85
2022-09-25T12:09:10.947Z,989.85
2022-09-25T12:10:10.970Z,989.87
2022-09-25T12:11:10.943Z,989.83
2022-09-25T12:12:10.931Z,989.85
2022-09-25T12:13:10.929Z,989.87
2022-09-25T12:14:11.017Z,989.87
2022-09-25T12:15:10.943Z,989.82
2022-09-25T12:16:11.010Z,989.83
2022-09-25T12:17:10.942Z,989.79
2022-09-25T12:18:10.950Z,989.83
2022-09-25T12:19:10.967Z,989.83
2022-09-25T12:20:10.944Z,989.81
2022-09-25T12:21:10.963Z,989.79
2022-09-25T12:22:10.998Z,989.83
2022-09-25T12:23:10.934Z,989.81
2022-09-25T12:24:10.978Z,989.84
2022-09-25T12:25:10.974Z,989.88
2022-09-25T12:26:10.960Z,989.84
2022-09-25T12:27:10.981Z,989.80
2022-09-25T12:28:10.935Z,989.87
2022-09-25T12:29:10.975Z,989.81